Time,TemperatureF,DewpointF,PressureIn,WindDirection,WindDirectionDegrees,WindSpeedMPH,WindSpeedGustMPH,Humidity,HourlyPrecipIn,Conditions,Clouds,dailyrainin,SoftwareType,DateUTC
2013-09-02 00:00:00,61.2,54.2,30.03,West,270,8.3,17.5,78,0.00,,,0.00,pywws,2013-09-01 23:00:00,
2013-09-02 00:10:00,61.2,54.2,30.03,WSW,248,6.0,13.6,78,0.00,,,0.00,pywws,2013-09-01 23:10:00,
2013-09-02 00:20:00,61.3,54.4,30.04,WSW,248,6.0,9.2,78,0.00,,,0.00,pywws,2013-09-01 23:20:00,
2013-09-02 00:30:00,61.5,54.6,30.04,West,270,6.9,13.0,78,0.00,,,0.00,pywws,2013-09-01 23:30:00,
2013-09-02 00:40:00,61.5,54.6,30.04,NW,315,6.0,10.7,78,0.00,,,0.00,pywws,2013-09-01 23:40:00,
2013-09-02 00:50:00,61.5,54.6,30.04,WSW,248,6.0,9.2,78,0.00,,,0.00,pywws,2013-09-01 23:50:00,
2013-09-02 01:00:00,61.5,54.6,30.04,NE,45,5.4,8.3,78,0.00,,,0.00,pywws,2013-09-02 00:00:00,
2013-09-02 01:10:00,61.7,55.1,30.04,West,270,4.5,6.9,79,0.00,,,0.00,pywws,2013-09-02 00:10:00,
2013-09-02 01:20:00,61.9,55.3,30.04,West,270,3.1,6.0,79,0.00,,,0.00,pywws,2013-09-02 00:20:00,
2013-09-02 01:30:00,62.1,55.5,30.04,WSW,248,5.4,8.3,79,0.00,,,0.00,pywws,2013-09-02 00:30:00,
2013-09-02 01:40:00,62.1,55.5,30.03,WSW,248,9.2,15.2,79,0.00,,,0.00,pywws,2013-09-02 00:40:00,
2013-09-02 01:50:00,62.1,55.1,30.03,WSW,248,8.3,15.9,78,0.00,,,0.00,pywws,2013-09-02 00:50:00,
2013-09-02 02:00:00,62.1,55.1,30.03,NW,315,9.8,16.8,78,0.00,,,0.00,pywws,2013-09-02 01:00:00,
2013-09-02 02:10:00,62.1,55.1,30.02,WSW,248,6.0,10.7,78,0.00,,,0.00,pywws,2013-09-02 01:10:00,
2013-09-02 02:20:00,61.9,54.9,30.03,WSW,248,7.6,13.0,78,0.00,,,0.00,pywws,2013-09-02 01:20:00,
2013-09-02 02:30:00,61.9,55.3,30.03,NW,315,6.9,13.6,79,0.00,,,0.00,pywws,2013-09-02 01:30:00,
2013-09-02 02:40:00,61.9,54.9,30.03,South,180,4.5,9.2,78,0.00,,,0.00,pywws,2013-09-02 01:40:00,
2013-09-02 02:50:00,61.9,55.3,30.03,WSW,248,3.1,6.0,79,0.00,,,0.00,pywws,2013-09-02 01:50:00,
2013-09-02 03:00:00,61.7,55.1,30.02,WSW,248,3.1,6.9,79,0.00,,,0.00,pywws,2013-09-02 02:00:00,
2013-09-02 03:12:00,61.7,55.1,30.02,SW,225,3.8,8.3,79,0.00,,,0.00,pywws,2013-09-02 02:12:00,
2013-09-02 03:20:00,61.5,54.9,30.01,WSW,248,6.0,9.2,79,0.00,,,0.00,pywws,2013-09-02 02:20:00,
2013-09-02 03:32:00,61.5,54.9,30.02,West,270,6.9,11.4,79,0.00,,,0.00,pywws,2013-09-02 02:32:00,
2013-09-02 03:40:00,61.5,55.3,30.01,WSW,248,5.4,7.6,80,0.00,,,0.00,pywws,2013-09-02 02:40:00,
2013-09-02 03:52:00,61.5,55.3,30.01,WNW,292,6.0,10.7,80,0.00,,,0.00,pywws,2013-09-02 02:52:00,
2013-09-02 04:00:00,61.5,55.3,30.00,WSW,248,3.8,9.2,80,0.00,,,0.00,pywws,2013-09-02 03:00:00,
2013-09-02 04:12:00,61.5,55.3,30.01,West,270,3.8,6.9,80,0.00,,,0.00,pywws,2013-09-02 03:12:00,
2013-09-02 04:20:00,61.5,55.3,30.01,WSW,248,6.0,13.0,80,0.00,,,0.00,pywws,2013-09-02 03:20:00,
2013-09-02 04:32:00,61.7,55.8,30.00,WSW,248,7.6,15.2,81,0.00,,,0.00,pywws,2013-09-02 03:32:00,
2013-09-02 04:40:00,61.9,56.0,30.00,WSW,248,13.6,21.2,81,0.00,,,0.00,pywws,2013-09-02 03:40:00,
2013-09-02 04:52:00,62.1,56.2,30.00,WSW,248,8.3,13.6,81,0.00,,,0.00,pywws,2013-09-02 03:52:00,
2013-09-02 05:00:00,62.2,56.3,30.00,WSW,248,11.4,16.8,81,0.00,,,0.00,pywws,2013-09-02 04:00:00,
2013-09-02 05:12:00,62.2,56.3,30.00,South,180,10.7,19.0,81,0.00,,,0.00,pywws,2013-09-02 04:12:00,
2013-09-02 05:20:00,62.4,56.5,30.01,WSW,248,7.6,14.5,81,0.00,,,0.00,pywws,2013-09-02 04:20:00,
2013-09-02 05:32:00,62.6,56.7,30.01,WSW,248,10.7,17.5,81,0.00,,,0.00,pywws,2013-09-02 04:32:00,
2013-09-02 05:40:00,62.6,56.3,30.01,West,270,9.2,16.8,80,0.00,,,0.00,pywws,2013-09-02 04:40:00,
2013-09-02 05:52:00,62.6,56.3,30.02,SE,135,6.9,12.1,80,0.00,,,0.00,pywws,2013-09-02 04:52:00,
2013-09-02 06:00:00,62.6,56.3,30.01,NW,315,7.6,15.9,80,0.00,,,0.00,pywws,2013-09-02 05:00:00,
2013-09-02 06:12:00,62.6,56.3,30.01,WNW,292,12.1,19.0,80,0.00,,,0.00,pywws,2013-09-02 05:12:00,
2013-09-02 06:20:00,62.8,56.2,30.01,WSW,248,12.1,19.7,79,0.00,,,0.00,pywws,2013-09-02 05:20:00,
2013-09-02 06:32:00,62.8,56.2,30.00,WSW,248,17.5,26.6,79,0.00,,,0.00,pywws,2013-09-02 05:32:00,
2013-09-02 06:40:00,63.0,56.3,30.01,North,0,6.9,12.1,79,0.00,,,0.00,pywws,2013-09-02 05:40:00,
2013-09-02 06:52:00,63.0,56.0,30.01,East,90,9.8,20.6,78,0.00,,,0.00,pywws,2013-09-02 05:52:00,
2013-09-02 06:53:00,63.1,56.2,30.01,WSW,248,7.6,13.6,78,0.00,,,0.00,pywws,2013-09-02 05:53:00,
2013-09-02 07:03:00,63.1,56.2,30.01,South,180,4.5,12.1,78,0.00,,,0.00,pywws,2013-09-02 06:03:00,
2013-09-02 07:10:00,63.3,56.3,30.02,West,270,5.4,9.8,78,0.00,,,0.00,pywws,2013-09-02 06:10:00,
2013-09-02 07:20:00,63.3,56.3,30.02,South,180,9.2,13.6,78,0.00,,,0.00,pywws,2013-09-02 06:20:00,
2013-09-02 07:30:00,63.5,56.2,30.03,WSW,248,5.4,9.8,77,0.00,,,0.00,pywws,2013-09-02 06:30:00,
2013-09-02 07:40:00,63.7,56.3,30.03,North,0,7.6,14.5,77,0.00,,,0.00,pywws,2013-09-02 06:40:00,
2013-09-02 07:50:00,63.9,56.5,30.04,WSW,248,4.5,11.4,77,0.00,,,0.00,pywws,2013-09-02 06:50:00,
2013-09-02 08:00:00,64.2,56.5,30.05,NNW,338,8.3,11.4,76,0.00,,,0.00,pywws,2013-09-02 07:00:00,
2013-09-02 08:10:00,64.4,56.3,30.05,WSW,248,5.4,8.3,75,0.00,,,0.00,pywws,2013-09-02 07:10:00,
2013-09-02 08:20:00,65.1,56.6,30.06,WSW,248,10.7,16.8,74,0.00,,,0.00,pywws,2013-09-02 07:20:00,
2013-09-02 08:30:00,65.8,57.3,30.06,West,270,6.0,9.2,74,0.00,,,0.00,pywws,2013-09-02 07:30:00,
2013-09-02 08:40:00,66.6,57.6,30.06,WSW,248,6.9,10.7,73,0.00,,,0.00,pywws,2013-09-02 07:40:00,
2013-09-02 08:50:00,67.3,57.9,30.06,WSW,248,7.6,13.6,72,0.00,,,0.00,pywws,2013-09-02 07:50:00,
2013-09-02 09:00:00,67.8,58.1,30.06,SW,225,12.1,20.6,71,0.00,,,0.00,pywws,2013-09-02 08:00:00,
2013-09-02 09:10:00,67.8,57.7,30.06,South,180,8.3,11.4,70,0.00,,,0.00,pywws,2013-09-02 08:10:00,
2013-09-02 09:20:00,68.5,58.4,30.06,NW,315,5.4,9.8,70,0.00,,,0.00,pywws,2013-09-02 08:20:00,
2013-09-02 09:30:00,68.7,58.1,30.06,WSW,248,8.3,15.9,69,0.00,,,0.00,pywws,2013-09-02 08:30:00,
2013-09-02 09:40:00,68.9,58.3,30.06,South,180,10.7,14.5,69,0.00,,,0.00,pywws,2013-09-02 08:40:00,
2013-09-02 09:50:00,69.3,58.6,30.06,WSW,248,6.9,12.1,69,0.00,,,0.00,pywws,2013-09-02 08:50:00,
2013-09-02 10:00:00,69.8,58.8,30.06,West,270,7.6,13.0,68,0.00,,,0.00,pywws,2013-09-02 09:00:00,
2013-09-02 10:10:00,70.3,59.3,30.06,West,270,9.2,17.5,68,0.00,,,0.00,pywws,2013-09-02 09:10:00,
2013-09-02 10:20:00,71.2,59.7,30.06,WSW,248,9.2,15.9,67,0.00,,,0.00,pywws,2013-09-02 09:20:00,
2013-09-02 10:30:00,72.1,59.7,30.07,WSW,248,12.1,16.8,65,0.00,,,0.00,pywws,2013-09-02 09:30:00,
2013-09-02 10:40:00,72.5,59.2,30.06,WSW,248,13.0,20.6,63,0.00,,,0.00,pywws,2013-09-02 09:40:00,
2013-09-02 10:50:00,72.7,59.3,30.06,WNW,292,6.9,14.5,63,0.00,,,0.00,pywws,2013-09-02 09:50:00,
2013-09-02 11:00:00,73.0,59.2,30.07,WSW,248,5.4,13.0,62,0.00,,,0.00,pywws,2013-09-02 10:00:00,
2013-09-02 11:10:00,73.2,59.4,30.06,NNW,338,11.4,16.8,62,0.00,,,0.00,pywws,2013-09-02 10:10:00,
2013-09-02 11:20:00,73.6,59.7,30.06,North,0,3.8,9.8,62,0.00,,,0.00,pywws,2013-09-02 10:20:00,
2013-09-02 11:30:00,73.6,59.3,30.06,WSW,248,5.4,9.8,61,0.00,,,0.00,pywws,2013-09-02 10:30:00,
2013-09-02 11:40:00,74.1,59.8,30.07,WSW,248,10.7,17.5,61,0.00,,,0.00,pywws,2013-09-02 10:40:00,
2013-09-02 11:50:00,74.7,59.8,30.07,WSW,248,5.4,15.9,60,0.00,,,0.00,pywws,2013-09-02 10:50:00,
2013-09-02 12:00:00,75.0,60.2,30.07,NW,315,8.3,15.9,60,0.00,,,0.00,pywws,2013-09-02 11:00:00,
2013-09-02 12:10:00,75.4,60.0,30.07,West,270,6.9,10.7,59,0.00,,,0.00,pywws,2013-09-02 11:10:00,
2013-09-02 12:20:00,75.2,59.9,30.08,South,180,6.9,13.0,59,0.00,,,0.00,pywws,2013-09-02 11:20:00,
2013-09-02 12:32:00,75.7,60.4,30.06,WSW,248,6.9,13.0,59,0.00,,,0.00,pywws,2013-09-02 11:32:00,
2013-09-02 12:40:00,76.5,60.1,30.07,South,180,13.6,19.7,57,0.00,,,0.00,pywws,2013-09-02 11:40:00,
2013-09-02 12:50:00,75.7,58.9,30.07,SE,135,8.3,14.5,56,0.00,,,0.00,pywws,2013-09-02 11:50:00,
2013-09-02 13:01:00,75.7,59.9,30.06,NW,315,6.9,14.5,58,0.00,,,0.00,pywws,2013-09-02 12:01:00,
2013-09-02 13:11:00,76.5,60.1,30.06,WSW,248,13.0,19.7,57,0.00,,,0.00,pywws,2013-09-02 12:11:00,
2013-09-02 13:20:00,76.6,60.2,30.07,WNW,292,7.6,10.7,57,0.00,,,0.00,pywws,2013-09-02 12:20:00,
2013-09-02 13:30:00,77.2,60.7,30.07,WSW,248,6.0,14.5,57,0.00,,,0.00,pywws,2013-09-02 12:30:00,
2013-09-02 13:40:00,77.5,60.1,30.06,WSW,248,15.9,28.2,55,0.00,,,0.00,pywws,2013-09-02 12:40:00,
2013-09-02 13:50:00,77.2,59.7,30.06,NW,315,13.6,28.2,55,0.00,,,0.00,pywws,2013-09-02 12:50:00,
2013-09-02 14:01:00,77.2,60.2,30.07,WSW,248,8.3,15.9,56,0.00,,,0.00,pywws,2013-09-02 13:01:00,
2013-09-02 14:10:00,77.4,60.4,30.07,NW,315,9.2,15.9,56,0.00,,,0.00,pywws,2013-09-02 13:10:00,
2013-09-02 14:20:00,77.4,59.9,30.08,South,180,15.2,23.5,55,0.00,,,0.00,pywws,2013-09-02 13:20:00,
2013-09-02 14:30:00,77.4,59.9,30.08,WSW,248,11.4,20.6,55,0.00,,,0.00,pywws,2013-09-02 13:30:00,
2013-09-02 14:40:00,77.4,59.9,30.08,WSW,248,9.2,14.5,55,0.00,,,0.00,pywws,2013-09-02 13:40:00,
2013-09-02 14:50:00,77.2,59.7,30.08,WSW,248,11.4,19.7,55,0.00,,,0.00,pywws,2013-09-02 13:50:00,
2013-09-02 15:01:00,77.2,59.7,30.08,SE,135,6.9,13.6,55,0.00,,,0.00,pywws,2013-09-02 14:01:00,
2013-09-02 15:10:00,77.4,59.4,30.07,WSW,248,12.1,17.5,54,0.00,,,0.00,pywws,2013-09-02 14:10:00,
2013-09-02 15:20:00,77.2,59.7,30.07,WSW,248,13.0,25.0,55,0.00,,,0.00,pywws,2013-09-02 14:20:00,
2013-09-02 15:30:00,77.5,59.6,30.07,NW,315,14.5,24.4,54,0.00,,,0.00,pywws,2013-09-02 14:30:00,
2013-09-02 15:40:00,77.4,59.4,30.07,NW,315,15.9,28.9,54,0.00,,,0.00,pywws,2013-09-02 14:40:00,
2013-09-02 15:50:00,76.3,58.4,30.07,South,180,7.6,15.2,54,0.00,,,0.00,pywws,2013-09-02 14:50:00,
2013-09-02 16:01:00,75.7,58.4,30.08,WSW,248,13.6,19.7,55,0.00,,,0.00,pywws,2013-09-02 15:01:00,
2013-09-02 16:10:00,75.4,58.6,30.08,South,180,6.9,15.2,56,0.00,,,0.00,pywws,2013-09-02 15:10:00,
2013-09-02 16:20:00,75.0,58.7,30.08,WSW,248,9.8,19.7,57,0.00,,,0.00,pywws,2013-09-02 15:20:00,
2013-09-02 16:30:00,75.2,59.4,30.09,WSW,248,9.8,15.9,58,0.00,,,0.00,pywws,2013-09-02 15:30:00,
2013-09-02 16:41:00,73.8,58.5,30.09,WSW,248,13.0,23.5,59,0.00,,,0.00,pywws,2013-09-02 15:41:00,
2013-09-02 16:50:00,72.3,58.6,30.09,WSW,248,13.0,26.0,62,0.00,,,0.00,pywws,2013-09-02 15:50:00,
2013-09-02 17:01:00,71.2,58.4,30.10,South,180,13.0,27.3,64,0.00,,,0.00,pywws,2013-09-02 16:01:00,
2013-09-02 17:10:00,70.7,58.3,30.10,South,180,10.7,22.1,65,0.00,,,0.00,pywws,2013-09-02 16:10:00,
2013-09-02 17:20:00,70.3,58.9,30.11,WSW,248,9.2,16.8,67,0.00,,,0.00,pywws,2013-09-02 16:20:00,
2013-09-02 17:30:00,70.5,59.0,30.11,WSW,248,5.4,10.7,67,0.00,,,0.00,pywws,2013-09-02 16:30:00,
2013-09-02 17:40:00,70.7,58.8,30.11,WSW,248,4.5,10.7,66,0.00,,,0.00,pywws,2013-09-02 16:40:00,
2013-09-02 17:50:00,70.9,58.5,30.11,SSW,202,6.0,9.8,65,0.00,,,0.00,pywws,2013-09-02 16:50:00,
2013-09-02 18:00:00,70.7,58.3,30.11,South,180,7.6,14.5,65,0.00,,,0.00,pywws,2013-09-02 17:00:00,
2013-09-02 18:10:00,70.7,58.3,30.12,WNW,292,5.4,10.7,65,0.00,,,0.00,pywws,2013-09-02 17:10:00,
2013-09-02 18:20:00,70.5,58.2,30.12,WSW,248,11.4,22.1,65,0.00,,,0.00,pywws,2013-09-02 17:20:00,
2013-09-02 18:30:00,70.0,57.7,30.12,North,-999,6.9,12.1,65,0.00,,,0.00,pywws,2013-09-02 17:30:00,
2013-09-02 18:40:00,69.4,57.2,30.12,WSW,248,9.2,15.2,65,0.00,,,0.00,pywws,2013-09-02 17:40:00,
2013-09-02 18:50:00,69.1,57.2,30.12,South,180,4.5,13.0,66,0.00,,,0.00,pywws,2013-09-02 17:50:00,
2013-09-02 19:01:00,68.7,57.3,30.13,West,270,6.9,9.8,67,0.00,,,0.00,pywws,2013-09-02 18:01:00,
2013-09-02 19:10:00,68.5,57.1,30.13,South,180,9.8,19.0,67,0.00,,,0.00,pywws,2013-09-02 18:10:00,
2013-09-02 19:20:00,68.0,57.0,30.14,South,180,4.5,9.2,68,0.00,,,0.00,pywws,2013-09-02 18:20:00,
2013-09-02 19:30:00,67.6,56.7,30.14,NW,315,4.5,10.7,68,0.00,,,0.00,pywws,2013-09-02 18:30:00,
2013-09-02 19:40:00,67.3,56.8,30.14,WSW,248,4.5,13.0,69,0.00,,,0.00,pywws,2013-09-02 18:40:00,
2013-09-02 19:50:00,66.7,56.2,30.15,WSW,248,4.5,8.3,69,0.00,,,0.00,pywws,2013-09-02 18:50:00,
2013-09-02 20:00:00,66.2,56.1,30.16,NW,315,4.5,9.2,70,0.00,,,0.00,pywws,2013-09-02 19:00:00,
2013-09-02 20:10:00,65.8,55.8,30.16,WSW,248,4.5,7.6,70,0.00,,,0.00,pywws,2013-09-02 19:10:00,
2013-09-02 20:20:00,65.5,55.8,30.16,WSW,248,4.5,8.3,71,0.00,,,0.00,pywws,2013-09-02 19:20:00,
2013-09-02 20:30:00,65.3,56.0,30.16,WNW,292,7.6,11.4,72,0.00,,,0.00,pywws,2013-09-02 19:30:00,
2013-09-02 20:40:00,65.1,56.2,30.17,WSW,248,3.8,6.9,73,0.00,,,0.00,pywws,2013-09-02 19:40:00,
2013-09-02 20:50:00,65.1,56.2,30.16,WNW,292,5.4,8.3,73,0.00,,,0.00,pywws,2013-09-02 19:50:00,
2013-09-02 21:00:00,64.9,56.1,30.17,West,270,3.1,5.4,73,0.00,,,0.00,pywws,2013-09-02 20:00:00,
2013-09-02 21:10:00,64.9,56.1,30.17,West,270,3.1,6.0,73,0.00,,,0.00,pywws,2013-09-02 20:10:00,
2013-09-02 21:20:00,64.6,56.1,30.17,WSW,248,6.9,11.4,74,0.00,,,0.00,pywws,2013-09-02 20:20:00,
2013-09-02 21:30:00,64.2,55.8,30.17,WSW,248,3.1,6.0,74,0.00,,,0.00,pywws,2013-09-02 20:30:00,
2013-09-02 21:40:00,64.0,55.6,30.18,NW,315,4.5,8.3,74,0.00,,,0.00,pywws,2013-09-02 20:40:00,
2013-09-02 21:50:00,63.9,55.8,30.18,North,0,3.8,8.3,75,0.00,,,0.00,pywws,2013-09-02 20:50:00,
2013-09-02 22:00:00,63.5,55.4,30.19,West,270,1.6,3.8,75,0.00,,,0.00,pywws,2013-09-02 21:00:00,
2013-09-02 22:10:00,63.3,55.3,30.19,West,270,2.2,4.5,75,0.00,,,0.00,pywws,2013-09-02 21:10:00,
2013-09-02 22:20:00,63.1,55.4,30.19,South,180,4.5,6.9,76,0.00,,,0.00,pywws,2013-09-02 21:20:00,
2013-09-02 22:30:00,63.0,55.6,30.19,NW,315,6.9,12.1,77,0.00,,,0.00,pywws,2013-09-02 21:30:00,
2013-09-02 22:40:00,62.8,55.5,30.19,WSW,248,3.1,5.4,77,0.00,,,0.00,pywws,2013-09-02 21:40:00,
2013-09-02 22:50:00,62.8,55.5,30.19,South,180,3.8,5.4,77,0.00,,,0.00,pywws,2013-09-02 21:50:00,
2013-09-02 23:00:00,62.6,55.6,30.19,South,180,3.1,6.9,78,0.00,,,0.00,pywws,2013-09-02 22:00:00,
2013-09-02 23:10:00,62.6,55.6,30.19,SSW,202,4.5,7.6,78,0.00,,,0.00,pywws,2013-09-02 22:10:00,
2013-09-02 23:20:00,62.6,56.0,30.19,WSW,248,6.0,9.8,79,0.00,,,0.00,pywws,2013-09-02 22:20:00,
2013-09-02 23:30:00,62.4,55.8,30.19,South,180,6.0,11.4,79,0.00,,,0.00,pywws,2013-09-02 22:30:00,
2013-09-02 23:40:00,62.4,56.2,30.19,South,180,7.6,11.4,80,0.00,,,0.00,pywws,2013-09-02 22:40:00,
2013-09-02 23:50:00,62.4,56.2,30.19,WSW,248,4.5,9.8,80,0.00,,,0.00,pywws,2013-09-02 22:50:00,